createdAt,value
2019-01-31T00:02:48.959Z,75.27
2019-01-31T00:06:08.674Z,74.80
2019-01-31T00:09:09.291Z,74.36
2019-01-31T00:12:23.787Z,73.75
2019-01-31T00:15:34.963Z,73.12
2019-01-31T00:18:51.714Z,72.58
2019-01-31T00:22:14.363Z,71.41
2019-01-31T00:25:01.278Z,70.54
2019-01-31T00:28:33.070Z,69.65
2019-01-31T00:31:29.303Z,69.50
2019-01-31T00:34:52.918Z,69.47
2019-01-31T00:38:02.967Z,69.43
2019-01-31T00:41:15.835Z,69.07
2019-01-31T00:44:23.527Z,68.64
2019-01-31T00:47:25.263Z,68.97
2019-01-31T00:50:30.232Z,69.24
2019-01-31T00:53:48.937Z,69.06
2019-01-31T00:56:48.214Z,69.26
2019-01-31T00:59:55.879Z,68.77
2019-01-31T01:03:02.404Z,68.76
2019-01-31T01:06:27.907Z,68.80
2019-01-31T01:09:18.440Z,68.08
2019-01-31T01:12:22.970Z,68.13
2019-01-31T01:15:52.801Z,68.38
2019-01-31T01:19:12.540Z,68.13
2019-01-31T01:22:25.228Z,68.04
2019-01-31T01:25:30.917Z,68.08
2019-01-31T01:28:23.599Z,67.73
2019-01-31T01:31:42.935Z,67.76
2019-01-31T01:35:01.420Z,67.48
2019-01-31T01:38:30.529Z,66.88
2019-01-31T01:41:29.610Z,67.24
2019-01-31T01:45:05.473Z,67.92
2019-01-31T01:47:46.023Z,67.65
2019-01-31T01:50:57.761Z,67.17
2019-01-31T01:54:02.586Z,67.24
2019-01-31T01:57:01.278Z,67.10
2019-01-31T02:00:21.624Z,67.67
2019-01-31T02:03:31.432Z,67.70
2019-01-31T02:06:50.146Z,67.99
2019-01-31T02:10:15.375Z,67.92
2019-01-31T02:13:28.904Z,68.11
2019-01-31T02:16:42.095Z,67.95
2019-01-31T02:19:54.048Z,68.57
2019-01-31T02:23:04.267Z,68.94
2019-01-31T02:26:03.060Z,69.83
2019-01-31T02:29:36.681Z,70.45
2019-01-31T02:32:57.774Z,70.94
2019-01-31T02:36:00.747Z,70.94
2019-01-31T02:39:25.199Z,70.98
2019-01-31T02:42:44.485Z,71.00
2019-01-31T02:46:03.664Z,72.00
2019-01-31T02:49:00.389Z,71.84
2019-01-31T02:52:12.415Z,71.94
2019-01-31T02:54:58.682Z,72.47
2019-01-31T02:58:10.075Z,72.74
2019-01-31T03:01:09.260Z,72.76
2019-01-31T03:04:17.264Z,72.27
2019-01-31T03:07:17.153Z,71.85
2019-01-31T03:10:21.166Z,71.82
2019-01-31T03:13:42.000Z,71.47
2019-01-31T03:17:04.980Z,71.51
2019-01-31T03:20:35.438Z,71.61
2019-01-31T03:24:01.470Z,72.59
2019-01-31T03:27:25.819Z,73.08
2019-01-31T03:30:35.604Z,72.97
2019-01-31T03:33:23.553Z,72.67
2019-01-31T03:36:48.575Z,71.96
2019-01-31T03:40:07.086Z,71.60
2019-01-31T03:43:36.910Z,71.72
2019-01-31T03:46:59.067Z,71.12
2019-01-31T03:50:01.637Z,70.88
2019-01-31T03:53:28.473Z,70.81
2019-01-31T03:56:58.988Z,70.65
2019-01-31T03:59:45.387Z,70.89
2019-01-31T04:02:44.810Z,70.76
2019-01-31T04:05:36.142Z,70.79
2019-01-31T04:08:06.256Z,70.60
2019-01-31T04:10:36.199Z,70.93
2019-01-31T04:13:06.240Z,70.87
2019-01-31T04:15:36.082Z,70.70
2019-01-31T04:18:06.408Z,70.85
2019-01-31T04:20:36.282Z,70.70
2019-01-31T04:23:06.387Z,70.90
2019-01-31T04:25:36.249Z,70.87
2019-01-31T04:28:06.579Z,70.96
2019-01-31T04:30:36.403Z,71.34
2019-01-31T04:33:06.623Z,71.22
2019-01-31T04:35:36.555Z,71.27
2019-01-31T04:38:06.443Z,71.21
2019-01-31T04:40:36.264Z,71.16
2019-01-31T04:43:06.146Z,71.09
2019-01-31T04:45:36.012Z,71.04
2019-01-31T04:48:06.457Z,71.04
2019-01-31T04:50:36.323Z,71.18
2019-01-31T04:53:06.269Z,71.03
2019-01-31T04:55:36.594Z,71.26
2019-01-31T04:58:06.758Z,71.15
2019-01-31T05:00:36.659Z,71.15
2019-01-31T05:03:06.593Z,71.36
2019-01-31T05:05:36.601Z,71.40
2019-01-31T05:08:06.608Z,71.61
2019-01-31T05:10:43.259Z,72.33
2019-01-31T05:13:08.231Z,72.52
2019-01-31T05:15:38.080Z,72.88
2019-01-31T05:18:08.009Z,73.24
2019-01-31T05:20:37.859Z,74.43
2019-01-31T05:23:07.754Z,74.87
2019-01-31T05:25:37.627Z,75.59
2019-01-31T05:28:07.749Z,76.28
2019-01-31T05:30:37.597Z,76.65
2019-01-31T05:33:07.439Z,77.28
2019-01-31T05:35:37.532Z,77.72
2019-01-31T05:38:07.635Z,78.42
2019-01-31T05:40:37.713Z,78.76
2019-01-31T05:43:07.578Z,78.81
2019-01-31T05:45:37.417Z,78.91
2019-01-31T05:48:07.289Z,78.96
2019-01-31T05:50:37.126Z,79.17
2019-01-31T05:53:07.390Z,79.57
2019-01-31T05:55:37.236Z,79.77
2019-01-31T05:58:07.200Z,80.00
2019-01-31T06:00:38.812Z,79.91
2019-01-31T06:03:08.717Z,79.95
2019-01-31T06:05:39.056Z,80.09
2019-01-31T06:08:08.933Z,80.40
2019-01-31T06:10:39.075Z,80.55
2019-01-31T06:13:08.933Z,80.72
2019-01-31T06:15:39.169Z,81.00
2019-01-31T06:18:09.231Z,81.34
2019-01-31T06:20:39.068Z,81.42
2019-01-31T06:23:09.054Z,81.22
2019-01-31T06:25:39.149Z,81.35
2019-01-31T06:28:09.282Z,81.52
2019-01-31T06:30:39.602Z,81.50
2019-01-31T06:33:09.509Z,81.53
2019-01-31T06:35:39.353Z,81.34
2019-01-31T06:38:09.315Z,81.64
2019-01-31T06:40:39.164Z,81.88
2019-01-31T06:43:08.999Z,81.97
2019-01-31T06:45:39.083Z,82.06
2019-01-31T06:48:09.179Z,82.38
2019-01-31T06:50:39.111Z,82.44
2019-01-31T06:53:08.950Z,82.51
2019-01-31T06:55:38.801Z,82.59
2019-01-31T06:58:08.727Z,82.69
2019-01-31T07:00:38.571Z,82.76
2019-01-31T07:06:55.636Z,82.79
2019-01-31T07:09:25.544Z,82.74
2019-01-31T07:11:55.671Z,82.55
2019-01-31T07:14:25.649Z,82.75
2019-01-31T07:16:55.685Z,83.01
2019-01-31T07:19:26.075Z,83.22
2019-01-31T07:21:56.294Z,83.55
2019-01-31T07:24:26.208Z,83.51
2019-01-31T07:26:56.597Z,83.43
2019-01-31T07:29:26.609Z,83.30
2019-01-31T07:31:56.772Z,86.42
2019-01-31T07:34:26.990Z,82.62
2019-01-31T07:36:57.198Z,80.72
2019-01-31T07:39:27.537Z,80.76
2019-01-31T07:41:57.638Z,80.74
2019-01-31T07:44:27.853Z,81.18
2019-01-31T07:46:57.805Z,81.50
2019-01-31T07:49:28.221Z,81.90
2019-01-31T07:51:58.191Z,81.83
2019-01-31T07:54:28.379Z,81.76
2019-01-31T07:56:58.517Z,81.60
2019-01-31T07:59:28.439Z,81.54
2019-01-31T08:01:58.300Z,81.38
2019-01-31T08:04:28.198Z,81.10
2019-01-31T08:06:58.589Z,80.98
2019-01-31T08:09:29.040Z,80.91
2019-01-31T08:11:59.447Z,80.75
2019-01-31T08:14:31.339Z,80.86
2019-01-31T08:17:20.371Z,80.40
2019-01-31T08:19:50.293Z,80.08
2019-01-31T08:22:20.520Z,79.74
2019-01-31T08:24:50.698Z,79.48
2019-01-31T08:27:20.637Z,79.25
2019-01-31T08:29:50.827Z,78.73
2019-01-31T08:32:20.997Z,78.37
2019-01-31T08:34:50.945Z,78.06
2019-01-31T08:37:21.138Z,77.64
2019-01-31T08:39:51.070Z,77.27
2019-01-31T08:42:21.248Z,76.64
2019-01-31T08:44:51.421Z,76.20
2019-01-31T08:47:21.616Z,75.48
2019-01-31T08:49:51.547Z,75.04
2019-01-31T08:52:21.787Z,74.55
2019-01-31T08:54:52.255Z,73.86
2019-01-31T08:57:22.693Z,73.79
2019-01-31T08:59:52.836Z,73.19
2019-01-31T09:02:23.254Z,72.50
2019-01-31T09:04:53.538Z,71.84
2019-01-31T09:07:23.719Z,71.00
2019-01-31T09:09:53.897Z,70.89
2019-01-31T09:12:24.320Z,71.02
2019-01-31T09:14:55.073Z,70.57
2019-01-31T09:17:25.072Z,69.52
2019-01-31T09:19:55.245Z,65.96
2019-01-31T09:22:39.355Z,52.45
2019-01-31T09:25:52.846Z,43.77
2019-01-31T09:28:44.742Z,40.72
2019-01-31T09:32:25.263Z,37.27
2019-01-31T09:35:58.473Z,34.87
2019-01-31T09:39:32.993Z,35.90
2019-01-31T09:42:26.821Z,38.86
2019-01-31T09:45:11.834Z,36.49
2019-01-31T09:48:24.163Z,35.57
2019-01-31T09:51:45.500Z,37.41
2019-01-31T09:54:53.646Z,37.93
2019-01-31T09:58:28.288Z,40.25
2019-01-31T10:01:24.521Z,47.80
2019-01-31T10:04:34.139Z,53.46
2019-01-31T10:08:02.393Z,55.50
2019-01-31T10:11:12.540Z,58.79
2019-01-31T10:14:39.574Z,60.22
2019-01-31T10:18:05.969Z,59.71
2019-01-31T10:21:17.516Z,60.91
2019-01-31T10:24:14.745Z,61.44
2019-01-31T10:27:50.311Z,60.48
2019-01-31T10:31:08.060Z,61.59
2019-01-31T10:34:32.694Z,62.29
2019-01-31T10:37:52.686Z,61.17
2019-01-31T10:41:27.546Z,61.55
2019-01-31T10:44:43.876Z,59.56
2019-01-31T10:48:07.644Z,59.12
2019-01-31T10:51:56.260Z,60.52
2019-01-31T10:55:20.161Z,60.98
2019-01-31T10:58:40.644Z,60.54
2019-01-31T11:01:58.514Z,60.56
2019-01-31T11:05:20.617Z,61.46
2019-01-31T11:08:16.415Z,61.10
2019-01-31T11:11:29.437Z,60.63
2019-01-31T11:14:48.552Z,60.84
2019-01-31T11:18:12.674Z,61.25
2019-01-31T11:21:45.976Z,61.21
2019-01-31T11:24:36.665Z,60.40
2019-01-31T11:27:52.445Z,60.81
2019-01-31T11:30:54.651Z,60.48
2019-01-31T11:34:32.436Z,60.43
2019-01-31T11:37:31.859Z,61.00
2019-01-31T11:40:46.358Z,59.43
2019-01-31T11:43:41.377Z,59.31
2019-01-31T11:46:55.562Z,59.01
2019-01-31T11:50:05.447Z,59.00
2019-01-31T11:53:21.400Z,58.36
2019-01-31T11:56:48.338Z,57.05
2019-01-31T11:59:18.792Z,57.64
2019-01-31T12:01:48.859Z,57.72
2019-01-31T12:04:19.909Z,56.96
2019-01-31T12:06:50.426Z,56.43
2019-01-31T12:09:22.266Z,54.95
2019-01-31T12:11:53.017Z,55.04
2019-01-31T12:14:22.946Z,54.77
2019-01-31T12:16:53.745Z,55.29
2019-01-31T12:19:24.158Z,55.03
2019-01-31T12:21:57.722Z,54.75
2019-01-31T12:24:28.142Z,52.59
2019-01-31T12:26:58.584Z,52.49
2019-01-31T12:29:28.489Z,52.60
2019-01-31T12:31:58.670Z,52.23
2019-01-31T12:34:28.908Z,52.06
2019-01-31T12:36:58.896Z,51.83
2019-01-31T12:39:29.487Z,51.94
2019-01-31T12:42:00.128Z,51.80
2019-01-31T12:44:30.706Z,51.95
2019-01-31T12:47:00.598Z,52.17
2019-01-31T12:49:31.052Z,52.10
2019-01-31T12:52:04.177Z,51.20
2019-01-31T12:54:33.140Z,50.12
2019-01-31T12:57:03.481Z,50.43
2019-01-31T12:59:33.713Z,50.13
2019-01-31T13:02:04.222Z,49.98
2019-01-31T13:04:34.466Z,49.73
2019-01-31T13:07:05.232Z,49.20
2019-01-31T13:09:35.643Z,49.57
2019-01-31T13:12:05.705Z,49.40
2019-01-31T13:14:35.602Z,48.99
2019-01-31T13:17:07.384Z,48.21
2019-01-31T13:19:37.959Z,47.34
2019-01-31T13:22:08.137Z,47.89
2019-01-31T13:24:38.583Z,48.28
2019-01-31T13:27:09.084Z,48.87
2019-01-31T13:29:39.239Z,48.17
2019-01-31T13:32:09.538Z,48.63
2019-01-31T13:34:39.981Z,49.77
2019-01-31T13:37:10.413Z,50.40
2019-01-31T13:39:40.507Z,50.79
2019-01-31T13:42:10.403Z,51.20
2019-01-31T13:44:40.597Z,55.98
2019-01-31T13:47:10.737Z,53.03
2019-01-31T13:49:40.937Z,51.26
2019-01-31T13:52:11.098Z,51.81
2019-01-31T13:54:41.402Z,51.91
2019-01-31T13:57:11.309Z,51.27
2019-01-31T13:59:41.527Z,50.31
2019-01-31T14:02:11.466Z,49.77
2019-01-31T14:04:41.671Z,50.05
2019-01-31T14:07:11.641Z,50.40
2019-01-31T14:09:41.568Z,50.13
2019-01-31T14:12:11.994Z,50.64
2019-01-31T14:14:41.925Z,50.68
2019-01-31T14:17:12.172Z,51.02
2019-01-31T14:19:42.694Z,50.86
2019-01-31T14:22:12.879Z,51.47
2019-01-31T14:24:43.842Z,51.14
2019-01-31T14:27:13.865Z,51.69
2019-01-31T14:29:44.057Z,51.66
2019-01-31T14:32:15.655Z,51.28
2019-01-31T14:34:45.897Z,50.74
2019-01-31T14:37:16.038Z,50.29
2019-01-31T14:39:46.196Z,50.50
2019-01-31T14:42:16.375Z,50.21
2019-01-31T14:44:46.378Z,50.53
2019-01-31T14:47:16.847Z,50.74
2019-01-31T14:49:46.806Z,51.46
2019-01-31T14:52:16.754Z,50.85
2019-01-31T14:54:46.646Z,50.66
2019-01-31T14:57:16.540Z,50.71
2019-01-31T14:59:46.713Z,50.94
2019-01-31T15:02:16.633Z,51.48
2019-01-31T15:04:46.819Z,51.81
2019-01-31T15:07:16.713Z,52.14
2019-01-31T15:09:46.640Z,52.41
2019-01-31T15:12:16.851Z,52.09
2019-01-31T15:14:47.288Z,52.13
2019-01-31T15:17:17.440Z,52.29
2019-01-31T15:19:47.639Z,52.48
2019-01-31T15:22:17.793Z,53.26
2019-01-31T15:24:47.975Z,53.56
2019-01-31T15:27:17.921Z,53.75
2019-01-31T15:29:48.106Z,53.99
2019-01-31T15:32:18.283Z,54.17
2019-01-31T15:34:48.601Z,54.61
2019-01-31T15:37:19.004Z,55.07
2019-01-31T15:39:48.926Z,55.97
2019-01-31T15:42:19.349Z,56.51
2019-01-31T15:44:49.281Z,56.96
2019-01-31T15:47:19.359Z,57.50
2019-01-31T15:49:49.522Z,58.42
2019-01-31T15:52:19.460Z,58.83
2019-01-31T15:54:49.694Z,59.07
2019-01-31T15:57:20.925Z,59.76
2019-01-31T15:59:51.464Z,60.27
2019-01-31T16:02:21.771Z,60.84
2019-01-31T16:04:51.735Z,61.25
2019-01-31T16:07:22.025Z,61.62
2019-01-31T16:09:52.245Z,61.74
2019-01-31T16:12:22.155Z,62.07
2019-01-31T16:14:55.050Z,62.50
2019-01-31T16:17:24.336Z,62.85
2019-01-31T16:19:54.564Z,62.53
2019-01-31T16:22:24.470Z,62.67
2019-01-31T16:24:54.370Z,62.82
2019-01-31T16:27:24.358Z,63.00
2019-01-31T16:29:54.336Z,63.17
2019-01-31T16:32:24.210Z,63.20
2019-01-31T16:34:54.259Z,63.46
2019-01-31T16:37:25.008Z,68.01
2019-01-31T16:39:55.483Z,70.71
2019-01-31T16:42:25.478Z,65.94
2019-01-31T16:45:06.130Z,65.57
2019-01-31T16:47:27.340Z,65.75
2019-01-31T16:49:57.247Z,65.50
2019-01-31T16:52:27.163Z,65.60
2019-01-31T16:54:57.052Z,65.60
2019-01-31T16:57:27.343Z,65.57
2019-01-31T16:59:57.756Z,65.70
2019-01-31T17:02:28.002Z,65.88
2019-01-31T17:04:58.001Z,66.00
2019-01-31T17:07:28.044Z,66.08
2019-01-31T17:09:58.530Z,66.37
2019-01-31T17:12:28.454Z,66.43
2019-01-31T17:14:58.890Z,66.48
2019-01-31T17:17:29.102Z,66.46
2019-01-31T17:19:59.347Z,66.87
2019-01-31T17:22:29.252Z,67.20
2019-01-31T17:24:59.144Z,67.37
2019-01-31T17:27:29.314Z,67.52
2019-01-31T17:30:00.092Z,67.72
2019-01-31T17:32:30.058Z,67.77
2019-01-31T17:35:00.229Z,67.86
2019-01-31T17:37:30.126Z,67.80
2019-01-31T17:40:00.309Z,67.51
2019-01-31T17:42:30.231Z,67.29
2019-01-31T17:45:00.199Z,67.32
2019-01-31T17:47:30.167Z,67.43
2019-01-31T17:50:00.318Z,67.52
2019-01-31T17:52:30.632Z,67.71
2019-01-31T17:55:00.803Z,67.77
2019-01-31T17:57:30.947Z,68.04
2019-01-31T18:00:01.107Z,68.35
2019-01-31T18:02:31.030Z,68.47
2019-01-31T18:05:01.195Z,68.50
2019-01-31T18:07:31.117Z,72.21
2019-01-31T18:10:01.058Z,70.21
2019-01-31T18:12:31.253Z,69.38
2019-01-31T18:15:02.014Z,69.22
2019-01-31T18:17:32.154Z,68.73
2019-01-31T18:20:02.093Z,68.60
2019-01-31T18:22:32.005Z,68.50
2019-01-31T18:25:02.174Z,68.56
2019-01-31T18:27:32.360Z,68.75
2019-01-31T18:30:02.557Z,68.94
2019-01-31T18:32:32.730Z,69.25
2019-01-31T18:35:03.160Z,69.17
2019-01-31T18:37:33.316Z,69.03
2019-01-31T18:40:03.361Z,68.94
2019-01-31T18:42:33.549Z,69.08
2019-01-31T18:45:04.090Z,68.94
2019-01-31T18:47:34.261Z,68.94
2019-01-31T18:50:05.628Z,69.11
2019-01-31T18:52:35.523Z,69.13
2019-01-31T18:55:06.438Z,69.13
2019-01-31T18:57:36.677Z,69.15
2019-01-31T19:00:15.840Z,69.11
2019-01-31T19:02:45.846Z,69.11
2019-01-31T19:05:16.112Z,69.11
2019-01-31T19:07:46.393Z,69.26
2019-01-31T19:10:16.695Z,69.27
2019-01-31T19:12:47.061Z,69.31
2019-01-31T19:15:18.054Z,69.45
2019-01-31T19:17:48.326Z,69.53
2019-01-31T19:20:21.946Z,69.66
2019-01-31T19:22:52.449Z,69.86
2019-01-31T19:25:22.824Z,70.02
2019-01-31T19:27:53.013Z,70.28
2019-01-31T19:30:26.067Z,70.57
2019-01-31T19:32:56.071Z,70.57
2019-01-31T19:35:26.186Z,70.70
2019-01-31T19:38:01.902Z,70.72
2019-01-31T19:40:31.715Z,70.93
2019-01-31T19:43:01.686Z,71.12
2019-01-31T19:45:40.769Z,71.12
2019-01-31T19:48:11.245Z,71.14
2019-01-31T19:50:43.598Z,71.25
2019-01-31T19:53:13.632Z,71.25
2019-01-31T19:55:44.315Z,71.21
2019-01-31T19:58:15.000Z,71.17
2019-01-31T20:00:44.954Z,71.46
2019-01-31T20:03:15.165Z,71.67
2019-01-31T20:05:45.107Z,71.92
2019-01-31T20:08:15.112Z,71.99
2019-01-31T20:10:45.408Z,72.21
2019-01-31T20:13:15.511Z,72.34
2019-01-31T20:15:46.165Z,72.37
2019-01-31T20:18:16.048Z,72.63
2019-01-31T20:20:46.446Z,72.88
2019-01-31T20:23:16.669Z,72.95
2019-01-31T20:25:46.658Z,73.03
2019-01-31T20:28:16.811Z,73.15
2019-01-31T20:30:47.011Z,73.23
2019-01-31T20:33:16.901Z,73.25
2019-01-31T20:35:47.074Z,73.24
2019-01-31T20:38:17.238Z,73.25
2019-01-31T20:40:47.716Z,73.35
2019-01-31T20:43:17.693Z,73.36
2019-01-31T20:45:47.916Z,73.47
2019-01-31T20:48:18.730Z,73.49
2019-01-31T20:50:48.704Z,73.62
2019-01-31T20:53:18.919Z,73.69
2019-01-31T20:55:49.171Z,73.75
2019-01-31T20:58:19.157Z,73.85
2019-01-31T21:00:49.842Z,73.96
2019-01-31T21:03:19.693Z,74.24
2019-01-31T21:05:49.633Z,74.41
2019-01-31T21:08:19.500Z,74.58
2019-01-31T21:10:50.053Z,74.76
2019-01-31T21:13:19.983Z,75.01
2019-01-31T21:15:52.832Z,75.14
2019-01-31T21:18:21.568Z,75.32
2019-01-31T21:20:51.667Z,75.42
2019-01-31T21:23:21.544Z,75.59
2019-01-31T21:25:51.367Z,75.66
2019-01-31T21:28:21.329Z,75.70
2019-01-31T21:30:51.495Z,75.78
2019-01-31T21:33:21.328Z,75.80
2019-01-31T21:35:51.340Z,75.96
2019-01-31T21:38:21.159Z,76.01
2019-01-31T21:40:51.069Z,75.97
2019-01-31T21:43:20.899Z,76.01
2019-01-31T21:45:50.759Z,76.36
2019-01-31T21:48:20.629Z,76.36
2019-01-31T21:50:50.510Z,76.49
2019-01-31T21:53:20.747Z,76.58
2019-01-31T21:55:50.869Z,76.86
2019-01-31T21:58:20.712Z,76.89
2019-01-31T22:00:50.806Z,76.84
2019-01-31T22:03:20.680Z,76.92
2019-01-31T22:05:50.508Z,77.01
2019-01-31T22:08:20.468Z,77.16
2019-01-31T22:10:50.405Z,77.31
2019-01-31T22:13:20.237Z,77.42
2019-01-31T22:15:50.069Z,77.70
2019-01-31T22:18:20.030Z,77.69
2019-01-31T22:20:50.152Z,77.82
2019-01-31T22:23:20.043Z,77.91
2019-01-31T22:25:49.971Z,78.00
2019-01-31T22:28:19.831Z,78.16
2019-01-31T22:30:49.692Z,78.24
2019-01-31T22:33:19.653Z,78.28
2019-01-31T22:35:50.906Z,78.36
2019-01-31T22:38:20.782Z,78.37
2019-01-31T22:40:50.659Z,78.58
2019-01-31T22:43:20.827Z,78.71
2019-01-31T22:45:50.724Z,78.76
2019-01-31T22:48:20.547Z,78.96
2019-01-31T22:50:50.407Z,79.04
2019-01-31T22:53:20.246Z,79.22
2019-01-31T22:55:50.913Z,79.36
2019-01-31T22:58:20.790Z,79.41
2019-01-31T23:01:24.379Z,79.46
2019-01-31T23:03:54.575Z,79.56
2019-01-31T23:06:25.252Z,79.65
2019-01-31T23:08:55.131Z,79.66
2019-01-31T23:11:25.070Z,79.69
2019-01-31T23:13:54.948Z,79.74
2019-01-31T23:16:24.878Z,79.84
2019-01-31T23:18:55.004Z,79.91
2019-01-31T23:21:24.833Z,79.98
2019-01-31T23:23:54.720Z,80.09
2019-01-31T23:26:24.802Z,80.22
2019-01-31T23:28:54.710Z,80.18
2019-01-31T23:31:24.568Z,80.18
2019-01-31T23:33:54.402Z,80.18
2019-01-31T23:36:24.520Z,80.11
2019-01-31T23:38:54.907Z,80.04
2019-01-31T23:41:24.789Z,80.05
2019-01-31T23:43:54.993Z,80.05
2019-01-31T23:46:25.292Z,79.98
2019-01-31T23:48:55.129Z,80.01
2019-01-31T23:51:25.051Z,80.05
2019-01-31T23:53:55.277Z,80.15
2019-01-31T23:56:25.196Z,80.21
2019-01-31T23:58:55.518Z,80.26
